sensor_id;sensor_type;location;lat;lon;timestamp;P1;durP1;ratioP1;P2;durP2;ratioP2
67556;SDS011;54387;53.526;49.300;2023-07-20T00:01:26;4.97;;;2.47;;
67556;SDS011;54387;53.526;49.300;2023-07-20T00:03:53;3.08;;;2.20;;
67556;SDS011;54387;53.526;49.300;2023-07-20T00:06:22;4.07;;;2.42;;
67556;SDS011;54387;53.526;49.300;2023-07-20T00:08:50;3.92;;;2.15;;
67556;SDS011;54387;53.526;49.300;2023-07-20T00:11:17;4.97;;;2.40;;
67556;SDS011;54387;53.526;49.300;2023-07-20T00:13:43;6.22;;;2.40;;
67556;SDS011;54387;53.526;49.300;2023-07-20T00:16:09;4.28;;;2.00;;
67556;SDS011;54387;53.526;49.300;2023-07-20T00:18:35;3.63;;;1.70;;
67556;SDS011;54387;53.526;49.300;2023-07-20T00:21:02;3.80;;;2.00;;
67556;SDS011;54387;53.526;49.300;2023-07-20T00:23:29;2.72;;;1.83;;
67556;SDS011;54387;53.526;49.300;2023-07-20T00:25:55;2.67;;;1.90;;
67556;SDS011;54387;53.526;49.300;2023-07-20T00:28:21;4.60;;;1.98;;
67556;SDS011;54387;53.526;49.300;2023-07-20T00:30:47;4.93;;;2.10;;
67556;SDS011;54387;53.526;49.300;2023-07-20T00:33:16;4.72;;;2.00;;
67556;SDS011;54387;53.526;49.300;2023-07-20T00:35:43;3.75;;;1.60;;
67556;SDS011;54387;53.526;49.300;2023-07-20T00:38:09;3.45;;;1.90;;
67556;SDS011;54387;53.526;49.300;2023-07-20T00:40:39;2.95;;;1.67;;
67556;SDS011;54387;53.526;49.300;2023-07-20T00:43:07;3.95;;;1.92;;
67556;SDS011;54387;53.526;49.300;2023-07-20T00:45:34;2.35;;;1.42;;
67556;SDS011;54387;53.526;49.300;2023-07-20T00:48:02;3.47;;;1.60;;
67556;SDS011;54387;53.526;49.300;2023-07-20T00:50:32;4.28;;;1.70;;
67556;SDS011;54387;53.526;49.300;2023-07-20T00:52:59;4.40;;;1.70;;
67556;SDS011;54387;53.526;49.300;2023-07-20T00:55:29;3.22;;;1.77;;
67556;SDS011;54387;53.526;49.300;2023-07-20T00:57:55;4.15;;;1.50;;
67556;SDS011;54387;53.526;49.300;2023-07-20T01:00:22;3.08;;;1.70;;
67556;SDS011;54387;53.526;49.300;2023-07-20T01:02:48;3.10;;;1.63;;
67556;SDS011;54387;53.526;49.300;2023-07-20T01:05:14;2.05;;;1.60;;
67556;SDS011;54387;53.526;49.300;2023-07-20T01:07:53;3.88;;;1.33;;
67556;SDS011;54387;53.526;49.300;2023-07-20T01:10:41;4.10;;;1.88;;
67556;SDS011;54387;53.526;49.300;2023-07-20T01:13:11;4.20;;;1.55;;
67556;SDS011;54387;53.526;49.300;2023-07-20T01:15:41;3.00;;;1.90;;
67556;SDS011;54387;53.526;49.300;2023-07-20T01:18:07;3.05;;;2.08;;
67556;SDS011;54387;53.526;49.300;2023-07-20T01:20:33;6.55;;;1.65;;
67556;SDS011;54387;53.526;49.300;2023-07-20T01:26:08;3.67;;;1.50;;
67556;SDS011;54387;53.526;49.300;2023-07-20T01:29:18;4.88;;;1.50;;
67556;SDS011;54387;53.526;49.300;2023-07-20T01:31:58;5.90;;;1.70;;
67556;SDS011;54387;53.526;49.300;2023-07-20T01:34:28;3.10;;;1.83;;
67556;SDS011;54387;53.526;49.300;2023-07-20T01:36:56;3.70;;;1.65;;
67556;SDS011;54387;53.526;49.300;2023-07-20T01:39:23;3.55;;;1.70;;
67556;SDS011;54387;53.526;49.300;2023-07-20T01:41:49;4.65;;;1.80;;
67556;SDS011;54387;53.526;49.300;2023-07-20T01:44:15;4.35;;;1.90;;
67556;SDS011;54387;53.526;49.300;2023-07-20T01:46:41;4.65;;;1.98;;
67556;SDS011;54387;53.526;49.300;2023-07-20T01:49:08;5.00;;;1.75;;
67556;SDS011;54387;53.526;49.300;2023-07-20T01:51:34;2.55;;;1.55;;
67556;SDS011;54387;53.526;49.300;2023-07-20T01:54:00;6.10;;;1.80;;
67556;SDS011;54387;53.526;49.300;2023-07-20T01:56:27;6.80;;;1.83;;
67556;SDS011;54387;53.526;49.300;2023-07-20T01:58:53;5.70;;;1.60;;
67556;SDS011;54387;53.526;49.300;2023-07-20T02:01:19;4.15;;;1.80;;
67556;SDS011;54387;53.526;49.300;2023-07-20T02:03:45;4.32;;;2.22;;
67556;SDS011;54387;53.526;49.300;2023-07-20T02:06:11;3.33;;;1.77;;
67556;SDS011;54387;53.526;49.300;2023-07-20T02:08:37;2.65;;;1.90;;
67556;SDS011;54387;53.526;49.300;2023-07-20T02:11:03;4.80;;;2.08;;
67556;SDS011;54387;53.526;49.300;2023-07-20T02:13:30;3.60;;;1.88;;
67556;SDS011;54387;53.526;49.300;2023-07-20T02:15:56;4.85;;;2.10;;
67556;SDS011;54387;53.526;49.300;2023-07-20T02:18:22;4.90;;;2.22;;
67556;SDS011;54387;53.526;49.300;2023-07-20T02:20:49;4.38;;;1.85;;
67556;SDS011;54387;53.526;49.300;2023-07-20T02:23:15;3.50;;;2.05;;
67556;SDS011;54387;53.526;49.300;2023-07-20T02:25:42;3.80;;;2.00;;
67556;SDS011;54387;53.526;49.300;2023-07-20T02:28:08;3.08;;;2.13;;
67556;SDS011;54387;53.526;49.300;2023-07-20T02:30:37;7.65;;;2.50;;
67556;SDS011;54387;53.526;49.300;2023-07-20T02:33:04;4.50;;;2.20;;
67556;SDS011;54387;53.526;49.300;2023-07-20T02:35:32;4.32;;;1.90;;
67556;SDS011;54387;53.526;49.300;2023-07-20T02:37:58;4.35;;;2.15;;
67556;SDS011;54387;53.526;49.300;2023-07-20T02:40:24;4.80;;;2.20;;
67556;SDS011;54387;53.526;49.300;2023-07-20T02:42:50;4.50;;;2.17;;
67556;SDS011;54387;53.526;49.300;2023-07-20T02:45:17;4.38;;;2.25;;
67556;SDS011;54387;53.526;49.300;2023-07-20T02:47:43;3.05;;;2.10;;
67556;SDS011;54387;53.526;49.300;2023-07-20T02:50:09;4.30;;;2.08;;
67556;SDS011;54387;53.526;49.300;2023-07-20T02:52:35;2.63;;;1.65;;
67556;SDS011;54387;53.526;49.300;2023-07-20T02:55:01;6.93;;;2.22;;
67556;SDS011;54387;53.526;49.300;2023-07-20T02:57:28;3.40;;;2.05;;
67556;SDS011;54387;53.526;49.300;2023-07-20T02:59:54;4.47;;;2.10;;
67556;SDS011;54387;53.526;49.300;2023-07-20T03:02:20;2.33;;;2.00;;
67556;SDS011;54387;53.526;49.300;2023-07-20T03:04:46;5.63;;;1.80;;
67556;SDS011;54387;53.526;49.300;2023-07-20T03:07:12;5.18;;;2.10;;
67556;SDS011;54387;53.526;49.300;2023-07-20T03:09:39;3.00;;;1.90;;
67556;SDS011;54387;53.526;49.300;2023-07-20T03:12:06;5.20;;;2.00;;
67556;SDS011;54387;53.526;49.300;2023-07-20T03:14:33;3.60;;;1.80;;
67556;SDS011;54387;53.526;49.300;2023-07-20T03:16:59;3.08;;;1.98;;
67556;SDS011;54387;53.526;49.300;2023-07-20T03:19:25;5.28;;;2.00;;
67556;SDS011;54387;53.526;49.300;2023-07-20T03:21:51;5.18;;;2.10;;
67556;SDS011;54387;53.526;49.300;2023-07-20T03:24:18;4.20;;;2.10;;
67556;SDS011;54387;53.526;49.300;2023-07-20T03:26:44;4.13;;;1.90;;
67556;SDS011;54387;53.526;49.300;2023-07-20T03:29:10;6.35;;;2.40;;
67556;SDS011;54387;53.526;49.300;2023-07-20T03:31:36;5.60;;;2.45;;
67556;SDS011;54387;53.526;49.300;2023-07-20T03:34:03;5.85;;;2.50;;
67556;SDS011;54387;53.526;49.300;2023-07-20T03:36:30;7.43;;;2.83;;
67556;SDS011;54387;53.526;49.300;2023-07-20T03:38:57;6.10;;;2.83;;
67556;SDS011;54387;53.526;49.300;2023-07-20T03:41:23;5.15;;;2.80;;
67556;SDS011;54387;53.526;49.300;2023-07-20T03:43:49;6.63;;;2.80;;
67556;SDS011;54387;53.526;49.300;2023-07-20T03:46:15;5.93;;;2.97;;
67556;SDS011;54387;53.526;49.300;2023-07-20T03:48:42;4.25;;;2.97;;
67556;SDS011;54387;53.526;49.300;2023-07-20T03:51:08;4.53;;;3.05;;
67556;SDS011;54387;53.526;49.300;2023-07-20T03:53:34;7.35;;;2.95;;
67556;SDS011;54387;53.526;49.300;2023-07-20T03:56:01;5.43;;;2.83;;
67556;SDS011;54387;53.526;49.300;2023-07-20T03:58:27;6.40;;;2.85;;
67556;SDS011;54387;53.526;49.300;2023-07-20T04:00:55;6.75;;;3.30;;
67556;SDS011;54387;53.526;49.300;2023-07-20T04:03:22;7.72;;;3.20;;
67556;SDS011;54387;53.526;49.300;2023-07-20T04:05:53;6.10;;;2.30;;
67556;SDS011;54387;53.526;49.300;2023-07-20T04:08:21;7.50;;;3.33;;
67556;SDS011;54387;53.526;49.300;2023-07-20T04:10:51;6.55;;;3.85;;
67556;SDS011;54387;53.526;49.300;2023-07-20T04:13:17;7.88;;;3.35;;
67556;SDS011;54387;53.526;49.300;2023-07-20T04:15:44;5.50;;;3.28;;
67556;SDS011;54387;53.526;49.300;2023-07-20T04:18:10;5.65;;;3.42;;
67556;SDS011;54387;53.526;49.300;2023-07-20T04:20:36;10.93;;;3.55;;
67556;SDS011;54387;53.526;49.300;2023-07-20T04:23:03;9.43;;;3.80;;
67556;SDS011;54387;53.526;49.300;2023-07-20T04:25:29;7.72;;;3.67;;
67556;SDS011;54387;53.526;49.300;2023-07-20T04:28:04;7.05;;;3.72;;
67556;SDS011;54387;53.526;49.300;2023-07-20T04:30:35;6.30;;;4.03;;
67556;SDS011;54387;53.526;49.300;2023-07-20T04:33:04;8.43;;;4.40;;
67556;SDS011;54387;53.526;49.300;2023-07-20T04:38:16;8.00;;;4.15;;
67556;SDS011;54387;53.526;49.300;2023-07-20T04:40:44;5.82;;;3.97;;
67556;SDS011;54387;53.526;49.300;2023-07-20T04:43:11;8.80;;;4.00;;
67556;SDS011;54387;53.526;49.300;2023-07-20T04:45:38;9.00;;;3.72;;
67556;SDS011;54387;53.526;49.300;2023-07-20T04:48:11;7.40;;;3.63;;
67556;SDS011;54387;53.526;49.300;2023-07-20T04:50:42;10.00;;;3.67;;
67556;SDS011;54387;53.526;49.300;2023-07-20T04:53:10;6.07;;;3.10;;
67556;SDS011;54387;53.526;49.300;2023-07-20T04:55:40;11.18;;;3.88;;
67556;SDS011;54387;53.526;49.300;2023-07-20T04:58:12;4.45;;;2.53;;
67556;SDS011;54387;53.526;49.300;2023-07-20T05:00:38;7.72;;;3.40;;
67556;SDS011;54387;53.526;49.300;2023-07-20T05:03:04;5.70;;;3.10;;
67556;SDS011;54387;53.526;49.300;2023-07-20T05:05:31;7.65;;;3.33;;
67556;SDS011;54387;53.526;49.300;2023-07-20T05:07:57;5.00;;;2.72;;
67556;SDS011;54387;53.526;49.300;2023-07-20T05:10:24;8.18;;;3.42;;
67556;SDS011;54387;53.526;49.300;2023-07-20T05:12:50;11.60;;;3.00;;
67556;SDS011;54387;53.526;49.300;2023-07-20T05:15:16;5.80;;;2.90;;
67556;SDS011;54387;53.526;49.300;2023-07-20T05:17:42;6.43;;;2.60;;
67556;SDS011;54387;53.526;49.300;2023-07-20T05:20:09;8.75;;;3.92;;
67556;SDS011;54387;53.526;49.300;2023-07-20T05:22:36;7.35;;;3.92;;
67556;SDS011;54387;53.526;49.300;2023-07-20T05:25:08;7.20;;;3.50;;
67556;SDS011;54387;53.526;49.300;2023-07-20T05:27:36;7.72;;;3.80;;
67556;SDS011;54387;53.526;49.300;2023-07-20T05:30:03;7.72;;;3.53;;
67556;SDS011;54387;53.526;49.300;2023-07-20T05:32:32;7.88;;;4.22;;
67556;SDS011;54387;53.526;49.300;2023-07-20T05:34:58;8.25;;;4.30;;
67556;SDS011;54387;53.526;49.300;2023-07-20T05:37:24;6.80;;;4.38;;
67556;SDS011;54387;53.526;49.300;2023-07-20T05:39:51;9.40;;;4.75;;
67556;SDS011;54387;53.526;49.300;2023-07-20T05:42:17;10.57;;;4.65;;
67556;SDS011;54387;53.526;49.300;2023-07-20T05:44:43;7.55;;;4.55;;
67556;SDS011;54387;53.526;49.300;2023-07-20T05:47:09;9.52;;;4.72;;
67556;SDS011;54387;53.526;49.300;2023-07-20T05:49:36;8.93;;;3.75;;
67556;SDS011;54387;53.526;49.300;2023-07-20T05:52:02;6.57;;;3.25;;
67556;SDS011;54387;53.526;49.300;2023-07-20T05:54:28;6.45;;;3.20;;
67556;SDS011;54387;53.526;49.300;2023-07-20T05:56:55;4.60;;;2.72;;
67556;SDS011;54387;53.526;49.300;2023-07-20T05:59:21;5.97;;;3.13;;
67556;SDS011;54387;53.526;49.300;2023-07-20T06:01:49;6.55;;;3.47;;
67556;SDS011;54387;53.526;49.300;2023-07-20T06:04:15;5.22;;;3.22;;
67556;SDS011;54387;53.526;49.300;2023-07-20T06:06:41;3.78;;;2.85;;
67556;SDS011;54387;53.526;49.300;2023-07-20T06:09:07;4.35;;;2.35;;
67556;SDS011;54387;53.526;49.300;2023-07-20T06:11:37;3.75;;;2.00;;
67556;SDS011;54387;53.526;49.300;2023-07-20T06:14:04;4.15;;;1.98;;
67556;SDS011;54387;53.526;49.300;2023-07-20T06:16:31;4.35;;;2.47;;
67556;SDS011;54387;53.526;49.300;2023-07-20T06:18:58;3.35;;;2.28;;
67556;SDS011;54387;53.526;49.300;2023-07-20T06:21:26;2.58;;;1.80;;
67556;SDS011;54387;53.526;49.300;2023-07-20T06:23:52;5.57;;;3.20;;
67556;SDS011;54387;53.526;49.300;2023-07-20T06:26:19;5.22;;;2.90;;
67556;SDS011;54387;53.526;49.300;2023-07-20T06:28:45;4.30;;;2.95;;
67556;SDS011;54387;53.526;49.300;2023-07-20T06:31:11;5.53;;;2.90;;
67556;SDS011;54387;53.526;49.300;2023-07-20T06:33:38;4.38;;;1.83;;
67556;SDS011;54387;53.526;49.300;2023-07-20T06:36:04;6.25;;;2.13;;
67556;SDS011;54387;53.526;49.300;2023-07-20T06:38:30;4.50;;;2.03;;
67556;SDS011;54387;53.526;49.300;2023-07-20T06:40:56;4.00;;;2.00;;
67556;SDS011;54387;53.526;49.300;2023-07-20T06:43:23;5.63;;;1.40;;
67556;SDS011;54387;53.526;49.300;2023-07-20T06:45:52;3.63;;;1.25;;
67556;SDS011;54387;53.526;49.300;2023-07-20T06:48:21;2.55;;;0.90;;
67556;SDS011;54387;53.526;49.300;2023-07-20T06:50:47;3.13;;;0.95;;
67556;SDS011;54387;53.526;49.300;2023-07-20T06:53:14;1.65;;;0.75;;
67556;SDS011;54387;53.526;49.300;2023-07-20T06:55:41;3.67;;;1.13;;
67556;SDS011;54387;53.526;49.300;2023-07-20T06:58:08;1.92;;;0.80;;
67556;SDS011;54387;53.526;49.300;2023-07-20T07:00:35;2.60;;;0.82;;
67556;SDS011;54387;53.526;49.300;2023-07-20T07:03:01;2.55;;;0.73;;
67556;SDS011;54387;53.526;49.300;2023-07-20T07:05:28;1.67;;;0.60;;
67556;SDS011;54387;53.526;49.300;2023-07-20T07:07:54;2.30;;;0.80;;
67556;SDS011;54387;53.526;49.300;2023-07-20T07:10:20;3.97;;;0.90;;
67556;SDS011;54387;53.526;49.300;2023-07-20T07:12:46;2.80;;;1.30;;
67556;SDS011;54387;53.526;49.300;2023-07-20T07:15:13;5.25;;;1.80;;
67556;SDS011;54387;53.526;49.300;2023-07-20T07:17:39;3.17;;;1.67;;
67556;SDS011;54387;53.526;49.300;2023-07-20T07:20:06;4.20;;;1.50;;
67556;SDS011;54387;53.526;49.300;2023-07-20T07:22:33;4.32;;;2.13;;
67556;SDS011;54387;53.526;49.300;2023-07-20T07:25:00;3.80;;;2.05;;
67556;SDS011;54387;53.526;49.300;2023-07-20T07:27:26;5.05;;;1.40;;
67556;SDS011;54387;53.526;49.300;2023-07-20T07:29:52;4.00;;;1.38;;
67556;SDS011;54387;53.526;49.300;2023-07-20T07:32:18;3.78;;;1.92;;
67556;SDS011;54387;53.526;49.300;2023-07-20T07:34:44;4.72;;;1.75;;
67556;SDS011;54387;53.526;49.300;2023-07-20T07:37:14;4.72;;;2.45;;
67556;SDS011;54387;53.526;49.300;2023-07-20T07:39:40;4.15;;;1.95;;
67556;SDS011;54387;53.526;49.300;2023-07-20T07:42:06;3.70;;;1.42;;
67556;SDS011;54387;53.526;49.300;2023-07-20T07:44:33;2.40;;;1.45;;
67556;SDS011;54387;53.526;49.300;2023-07-20T07:46:59;5.18;;;1.30;;
67556;SDS011;54387;53.526;49.300;2023-07-20T07:49:25;3.08;;;1.85;;
67556;SDS011;54387;53.526;49.300;2023-07-20T07:51:53;5.65;;;2.03;;
67556;SDS011;54387;53.526;49.300;2023-07-20T07:54:19;3.55;;;1.52;;
67556;SDS011;54387;53.526;49.300;2023-07-20T07:56:45;4.50;;;1.63;;
67556;SDS011;54387;53.526;49.300;2023-07-20T07:59:11;3.60;;;1.50;;
67556;SDS011;54387;53.526;49.300;2023-07-20T08:01:38;2.70;;;1.10;;
67556;SDS011;54387;53.526;49.300;2023-07-20T08:04:04;4.45;;;1.20;;
67556;SDS011;54387;53.526;49.300;2023-07-20T08:06:30;4.65;;;1.20;;
67556;SDS011;54387;53.526;49.300;2023-07-20T08:08:57;4.95;;;2.30;;
67556;SDS011;54387;53.526;49.300;2023-07-20T08:11:23;4.75;;;1.10;;
67556;SDS011;54387;53.526;49.300;2023-07-20T08:13:50;2.30;;;0.93;;
67556;SDS011;54387;53.526;49.300;2023-07-20T08:16:16;2.22;;;1.13;;
67556;SDS011;54387;53.526;49.300;2023-07-20T08:18:43;4.13;;;1.38;;
67556;SDS011;54387;53.526;49.300;2023-07-20T08:21:11;3.00;;;1.10;;
67556;SDS011;54387;53.526;49.300;2023-07-20T08:23:37;1.63;;;1.17;;
67556;SDS011;54387;53.526;49.300;2023-07-20T08:26:03;3.45;;;1.45;;
67556;SDS011;54387;53.526;49.300;2023-07-20T08:28:30;5.82;;;1.25;;
67556;SDS011;54387;53.526;49.300;2023-07-20T08:30:56;5.28;;;1.35;;
67556;SDS011;54387;53.526;49.300;2023-07-20T08:33:23;2.97;;;1.30;;
67556;SDS011;54387;53.526;49.300;2023-07-20T08:35:49;3.47;;;1.10;;
67556;SDS011;54387;53.526;49.300;2023-07-20T08:38:16;3.70;;;1.10;;
67556;SDS011;54387;53.526;49.300;2023-07-20T08:40:43;2.92;;;1.15;;
67556;SDS011;54387;53.526;49.300;2023-07-20T08:43:11;3.30;;;1.30;;
67556;SDS011;54387;53.526;49.300;2023-07-20T08:45:38;2.65;;;0.80;;
67556;SDS011;54387;53.526;49.300;2023-07-20T08:48:06;3.70;;;0.98;;
67556;SDS011;54387;53.526;49.300;2023-07-20T08:50:34;1.30;;;0.70;;
67556;SDS011;54387;53.526;49.300;2023-07-20T08:53:01;1.77;;;0.70;;
67556;SDS011;54387;53.526;49.300;2023-07-20T08:55:28;3.30;;;1.10;;
67556;SDS011;54387;53.526;49.300;2023-07-20T08:57:59;5.78;;;1.00;;
67556;SDS011;54387;53.526;49.300;2023-07-20T09:00:26;4.07;;;1.00;;
67556;SDS011;54387;53.526;49.300;2023-07-20T09:02:55;2.70;;;0.77;;
67556;SDS011;54387;53.526;49.300;2023-07-20T09:05:22;3.22;;;0.90;;
67556;SDS011;54387;53.526;49.300;2023-07-20T09:07:52;2.45;;;0.90;;
67556;SDS011;54387;53.526;49.300;2023-07-20T09:10:24;6.38;;;1.08;;
67556;SDS011;54387;53.526;49.300;2023-07-20T09:12:50;2.58;;;1.10;;
67556;SDS011;54387;53.526;49.300;2023-07-20T09:15:16;3.50;;;1.02;;
67556;SDS011;54387;53.526;49.300;2023-07-20T09:17:46;5.47;;;1.20;;
67556;SDS011;54387;53.526;49.300;2023-07-20T09:20:14;4.38;;;1.02;;
67556;SDS011;54387;53.526;49.300;2023-07-20T09:22:42;1.83;;;1.00;;
67556;SDS011;54387;53.526;49.300;2023-07-20T09:27:40;1.50;;;0.90;;
67556;SDS011;54387;53.526;49.300;2023-07-20T09:30:08;2.65;;;1.00;;
67556;SDS011;54387;53.526;49.300;2023-07-20T09:35:13;3.75;;;0.95;;
67556;SDS011;54387;53.526;49.300;2023-07-20T09:37:51;2.40;;;1.00;;
67556;SDS011;54387;53.526;49.300;2023-07-20T09:40:23;2.08;;;0.80;;
67556;SDS011;54387;53.526;49.300;2023-07-20T09:42:54;4.63;;;0.85;;
67556;SDS011;54387;53.526;49.300;2023-07-20T09:45:30;4.60;;;0.80;;
67556;SDS011;54387;53.526;49.300;2023-07-20T09:48:05;1.23;;;0.73;;
67556;SDS011;54387;53.526;49.300;2023-07-20T09:50:32;2.00;;;0.90;;
67556;SDS011;54387;53.526;49.300;2023-07-20T09:53:00;2.78;;;0.80;;
67556;SDS011;54387;53.526;49.300;2023-07-20T09:55:28;4.05;;;0.90;;
67556;SDS011;54387;53.526;49.300;2023-07-20T09:57:54;2.33;;;0.70;;
67556;SDS011;54387;53.526;49.300;2023-07-20T10:00:22;2.35;;;0.98;;
67556;SDS011;54387;53.526;49.300;2023-07-20T10:02:49;1.77;;;0.90;;
67556;SDS011;54387;53.526;49.300;2023-07-20T10:05:17;8.38;;;1.25;;
67556;SDS011;54387;53.526;49.300;2023-07-20T10:07:49;5.10;;;1.10;;
67556;SDS011;54387;53.526;49.300;2023-07-20T10:10:23;2.97;;;1.00;;
67556;SDS011;54387;53.526;49.300;2023-07-20T10:12:50;2.30;;;1.25;;
67556;SDS011;54387;53.526;49.300;2023-07-20T10:15:22;2.40;;;1.00;;
67556;SDS011;54387;53.526;49.300;2023-07-20T10:20:39;2.53;;;1.30;;
67556;SDS011;54387;53.526;49.300;2023-07-20T10:23:09;2.97;;;1.20;;
67556;SDS011;54387;53.526;49.300;2023-07-20T10:25:37;2.45;;;1.08;;
67556;SDS011;54387;53.526;49.300;2023-07-20T10:28:04;2.20;;;1.00;;
67556;SDS011;54387;53.526;49.300;2023-07-20T10:30:34;2.55;;;0.90;;
67556;SDS011;54387;53.526;49.300;2023-07-20T10:33:02;3.90;;;1.23;;
67556;SDS011;54387;53.526;49.300;2023-07-20T10:35:29;1.77;;;0.90;;
67556;SDS011;54387;53.526;49.300;2023-07-20T10:38:00;1.45;;;0.80;;
67556;SDS011;54387;53.526;49.300;2023-07-20T10:40:33;2.97;;;0.90;;
67556;SDS011;54387;53.526;49.300;2023-07-20T10:43:04;2.42;;;0.85;;
67556;SDS011;54387;53.526;49.300;2023-07-20T10:45:50;1.35;;;0.80;;
67556;SDS011;54387;53.526;49.300;2023-07-20T10:48:19;3.25;;;0.95;;
67556;SDS011;54387;53.526;49.300;2023-07-20T10:53:50;2.63;;;0.90;;
67556;SDS011;54387;53.526;49.300;2023-07-20T10:56:19;1.63;;;0.88;;
67556;SDS011;54387;53.526;49.300;2023-07-20T10:58:46;1.63;;;1.10;;
67556;SDS011;54387;53.526;49.300;2023-07-20T11:01:13;1.65;;;1.00;;
67556;SDS011;54387;53.526;49.300;2023-07-20T11:03:42;3.42;;;1.10;;
67556;SDS011;54387;53.526;49.300;2023-07-20T11:08:55;2.97;;;1.13;;
67556;SDS011;54387;53.526;49.300;2023-07-20T11:11:32;3.58;;;0.88;;
67556;SDS011;54387;53.526;49.300;2023-07-20T11:14:01;2.50;;;0.93;;
67556;SDS011;54387;53.526;49.300;2023-07-20T11:19:15;3.33;;;1.15;;
67556;SDS011;54387;53.526;49.300;2023-07-20T11:21:56;2.88;;;1.23;;
67556;SDS011;54387;53.526;49.300;2023-07-20T11:24:25;2.53;;;1.20;;
67556;SDS011;54387;53.526;49.300;2023-07-20T11:26:52;2.20;;;1.10;;
67556;SDS011;54387;53.526;49.300;2023-07-20T11:29:20;2.67;;;0.80;;
67556;SDS011;54387;53.526;49.300;2023-07-20T11:31:49;3.45;;;1.13;;
67556;SDS011;54387;53.526;49.300;2023-07-20T11:34:16;4.47;;;1.40;;
67556;SDS011;54387;53.526;49.300;2023-07-20T11:36:44;1.65;;;0.90;;
67556;SDS011;54387;53.526;49.300;2023-07-20T11:39:18;3.53;;;1.35;;
67556;SDS011;54387;53.526;49.300;2023-07-20T11:41:55;2.67;;;0.70;;
67556;SDS011;54387;53.526;49.300;2023-07-20T11:44:23;1.70;;;0.73;;
67556;SDS011;54387;53.526;49.300;2023-07-20T11:46:59;2.70;;;1.50;;
67556;SDS011;54387;53.526;49.300;2023-07-20T11:49:29;4.20;;;1.20;;
67556;SDS011;54387;53.526;49.300;2023-07-20T11:51:56;5.50;;;1.50;;
67556;SDS011;54387;53.526;49.300;2023-07-20T11:54:23;2.35;;;1.42;;
67556;SDS011;54387;53.526;49.300;2023-07-20T11:56:54;1.90;;;1.00;;
67556;SDS011;54387;53.526;49.300;2023-07-20T11:59:23;2.10;;;0.82;;
67556;SDS011;54387;53.526;49.300;2023-07-20T12:01:49;3.33;;;1.00;;
67556;SDS011;54387;53.526;49.300;2023-07-20T12:04:16;5.13;;;1.10;;
67556;SDS011;54387;53.526;49.300;2023-07-20T12:06:42;3.80;;;1.65;;
67556;SDS011;54387;53.526;49.300;2023-07-20T12:09:12;5.68;;;3.08;;
67556;SDS011;54387;53.526;49.300;2023-07-20T12:11:42;4.47;;;2.85;;
67556;SDS011;54387;53.526;49.300;2023-07-20T12:14:10;4.38;;;1.85;;
67556;SDS011;54387;53.526;49.300;2023-07-20T12:16:36;3.40;;;1.38;;
67556;SDS011;54387;53.526;49.300;2023-07-20T12:19:09;7.20;;;1.35;;
67556;SDS011;54387;53.526;49.300;2023-07-20T12:21:39;4.25;;;1.38;;
67556;SDS011;54387;53.526;49.300;2023-07-20T12:24:08;3.28;;;1.13;;
67556;SDS011;54387;53.526;49.300;2023-07-20T12:26:35;2.55;;;1.10;;
67556;SDS011;54387;53.526;49.300;2023-07-20T12:29:02;4.43;;;1.30;;
67556;SDS011;54387;53.526;49.300;2023-07-20T12:31:29;4.22;;;1.20;;
67556;SDS011;54387;53.526;49.300;2023-07-20T12:33:57;5.43;;;1.15;;
67556;SDS011;54387;53.526;49.300;2023-07-20T12:36:24;2.05;;;1.27;;
67556;SDS011;54387;53.526;49.300;2023-07-20T12:38:50;1.67;;;1.23;;
67556;SDS011;54387;53.526;49.300;2023-07-20T12:41:17;6.07;;;1.10;;
67556;SDS011;54387;53.526;49.300;2023-07-20T12:43:44;2.75;;;1.25;;
67556;SDS011;54387;53.526;49.300;2023-07-20T12:46:11;5.07;;;1.08;;
67556;SDS011;54387;53.526;49.300;2023-07-20T12:48:39;2.92;;;1.05;;
67556;SDS011;54387;53.526;49.300;2023-07-20T12:51:07;2.83;;;0.90;;
67556;SDS011;54387;53.526;49.300;2023-07-20T12:53:34;1.52;;;0.70;;
67556;SDS011;54387;53.526;49.300;2023-07-20T12:56:01;2.80;;;1.02;;
67556;SDS011;54387;53.526;49.300;2023-07-20T12:58:30;3.25;;;0.80;;
67556;SDS011;54387;53.526;49.300;2023-07-20T13:00:57;4.35;;;1.00;;
67556;SDS011;54387;53.526;49.300;2023-07-20T13:03:23;1.00;;;0.63;;
67556;SDS011;54387;53.526;49.300;2023-07-20T13:05:50;2.47;;;0.70;;
67556;SDS011;54387;53.526;49.300;2023-07-20T13:08:16;3.10;;;0.90;;
67556;SDS011;54387;53.526;49.300;2023-07-20T13:10:43;2.38;;;0.77;;
67556;SDS011;54387;53.526;49.300;2023-07-20T13:13:09;4.57;;;1.00;;
67556;SDS011;54387;53.526;49.300;2023-07-20T13:15:43;3.70;;;0.80;;
67556;SDS011;54387;53.526;49.300;2023-07-20T13:18:10;1.73;;;0.90;;
67556;SDS011;54387;53.526;49.300;2023-07-20T13:20:36;2.28;;;0.82;;
67556;SDS011;54387;53.526;49.300;2023-07-20T13:23:04;2.85;;;0.70;;
67556;SDS011;54387;53.526;49.300;2023-07-20T13:25:31;2.95;;;0.85;;
67556;SDS011;54387;53.526;49.300;2023-07-20T13:27:57;2.22;;;0.93;;
67556;SDS011;54387;53.526;49.300;2023-07-20T13:30:23;1.77;;;0.93;;
67556;SDS011;54387;53.526;49.300;2023-07-20T13:32:49;1.30;;;1.00;;
67556;SDS011;54387;53.526;49.300;2023-07-20T13:35:16;3.72;;;1.13;;
67556;SDS011;54387;53.526;49.300;2023-07-20T13:37:42;1.73;;;0.80;;
67556;SDS011;54387;53.526;49.300;2023-07-20T13:40:08;2.65;;;1.00;;
67556;SDS011;54387;53.526;49.300;2023-07-20T13:42:39;3.28;;;0.98;;
67556;SDS011;54387;53.526;49.300;2023-07-20T13:45:06;1.38;;;0.70;;
67556;SDS011;54387;53.526;49.300;2023-07-20T13:47:32;1.35;;;0.80;;
67556;SDS011;54387;53.526;49.300;2023-07-20T13:49:59;2.50;;;0.98;;
67556;SDS011;54387;53.526;49.300;2023-07-20T13:52:26;3.15;;;0.80;;
67556;SDS011;54387;53.526;49.300;2023-07-20T13:54:52;2.60;;;1.00;;
67556;SDS011;54387;53.526;49.300;2023-07-20T13:57:18;4.45;;;1.20;;
67556;SDS011;54387;53.526;49.300;2023-07-20T13:59:45;5.43;;;1.10;;
67556;SDS011;54387;53.526;49.300;2023-07-20T14:02:13;2.78;;;0.77;;
67556;SDS011;54387;53.526;49.300;2023-07-20T14:04:41;1.20;;;0.90;;
67556;SDS011;54387;53.526;49.300;2023-07-20T14:07:07;3.58;;;1.20;;
67556;SDS011;54387;53.526;49.300;2023-07-20T14:09:33;2.15;;;1.00;;
67556;SDS011;54387;53.526;49.300;2023-07-20T14:11:59;3.55;;;0.90;;
67556;SDS011;54387;53.526;49.300;2023-07-20T14:14:26;1.40;;;0.80;;
67556;SDS011;54387;53.526;49.300;2023-07-20T14:16:52;1.75;;;0.80;;
67556;SDS011;54387;53.526;49.300;2023-07-20T14:19:18;1.30;;;0.80;;
67556;SDS011;54387;53.526;49.300;2023-07-20T14:21:46;3.03;;;0.90;;
67556;SDS011;54387;53.526;49.300;2023-07-20T14:24:13;2.75;;;1.00;;
67556;SDS011;54387;53.526;49.300;2023-07-20T14:26:39;3.90;;;0.98;;
67556;SDS011;54387;53.526;49.300;2023-07-20T14:29:05;5.15;;;1.00;;
67556;SDS011;54387;53.526;49.300;2023-07-20T14:31:31;3.53;;;1.02;;
67556;SDS011;54387;53.526;49.300;2023-07-20T14:33:58;2.20;;;0.80;;
67556;SDS011;54387;53.526;49.300;2023-07-20T14:36:25;4.63;;;0.95;;
67556;SDS011;54387;53.526;49.300;2023-07-20T14:38:51;2.83;;;0.90;;
67556;SDS011;54387;53.526;49.300;2023-07-20T14:41:17;4.15;;;0.80;;
67556;SDS011;54387;53.526;49.300;2023-07-20T14:43:43;4.28;;;1.23;;
67556;SDS011;54387;53.526;49.300;2023-07-20T14:46:10;2.78;;;1.00;;
67556;SDS011;54387;53.526;49.300;2023-07-20T14:48:36;1.38;;;0.93;;
67556;SDS011;54387;53.526;49.300;2023-07-20T14:51:02;6.13;;;1.33;;
67556;SDS011;54387;53.526;49.300;2023-07-20T14:53:29;1.75;;;0.88;;
67556;SDS011;54387;53.526;49.300;2023-07-20T14:56:01;5.32;;;1.10;;
67556;SDS011;54387;53.526;49.300;2023-07-20T14:58:29;2.97;;;0.90;;